Columbia Regional Airport
KCOU : now visible

Airfield :











YOU CAN JOIN US ON...

 
LOGIN :

Register | Disclaimer

   EN    FR    IT 

 









Legend :    VFR   Marginal VFR   IFR   Intensive IFR   Very Intensive IFR
Visi :
Ceiling :
>= 8 km
>= 3000ft
5 to 8 km
1000 to 3000 ft
1500m to 5 km
500 to 1000 ft
800 to 1500m
200 to 500 ft
< 800m
< 200 ft
Symbols :   Thunderstorms  Fog  Heavy snow  Heavy precipitations  Wind > 20 kt






- Airport Elevation : 889 ft
- IATA code : COU


KCOU - Columbia Regional

CURRENT METAR :
  • 260754Z AUTO 10003KT 10SM OVC090 M01/M03 A3002 RMK AO2 SLP175 T10111033

EXPIRED METARs :
  • 260654Z AUTO 00000KT 10SM OVC095 M02/M03 A3003 RMK AO2 SLP177 T10171033
  • 260554Z AUTO 20004KT 9SM OVC090 M02/M03 A3004 RMK AO2 SLP182 I6001 T10221033 11011 21044 400111044 58002
  • 260454Z AUTO 19003KT 10SM OVC100 M03/M04 A3005 RMK AO2 SLP184 T10281039

TAF KCOU
Valid from the 26 at 06:00 until the 27 at 06:00 UTC


260531Z 2606/2706 VRB04KT P6SM OVC100
TEMPO 2609/2612 5SM BR
FM261700 25005KT P6SM OVC040
FM270400 VRB04KT 4SM BR BKN012



MET'MAP, your aeronautical weather chart ! - Copyright ORBIFLY December 2007 - Disclaimer

ORBIFLY MET'MAP TEAM :

Programming & Development : Alexandra Zaïnal
Concept & original design : Baudouin d'Aumeries
Assistance for programming : Marc-Olivier Méhu
Technical & hardware support : Manuel Goepfert

Contact : metmap@orbifly.com




SOURCES & CREDITS :

   NOAA       Earth
Advisory